Terminal Aerodrome Forecast
Issued by NWS Wilmington, OH

Current Version | Previous Version | Graphics & Text | Print | Product List | Glossary On
Versions: 1 2 3 4 5 6 7 8 9 10 11 12 13 14 15
000
FTUS41 KILN 201100
TAFILN
TAF
KILN 201121Z 2012/2112 26010KT P6SM OVC030
     FM201300 25010KT P6SM OVC035
     FM201400 24014KT P6SM SCT035
     FM201600 25012G20KT P6SM SCT035
     FM201800 25015G23KT P6SM OVC035
     FM210100 26012KT P6SM OVC035=

USA.gov is the U.S. government's official web portal to all federal, state and local government web resources and services.